sensor_id;sensor_type;location;lat;lon;timestamp;P1;durP1;ratioP1;P2;durP2;ratioP2
15516;SDS011;7860;52.030;5.572;2023-01-29T00:03:11;23.52;;;16.73;;
15516;SDS011;7860;52.030;5.572;2023-01-29T00:03:11;23.87;;;16.59;;
15516;SDS011;7860;52.030;5.572;2023-01-29T00:03:11;23.77;;;17.01;;
15516;SDS011;7860;52.030;5.572;2023-01-29T00:03:50;22.47;;;16.60;;
15516;SDS011;7860;52.030;5.572;2023-01-29T00:04:51;24.20;;;16.26;;
15516;SDS011;7860;52.030;5.572;2023-01-29T00:05:52;22.95;;;15.95;;
15516;SDS011;7860;52.030;5.572;2023-01-29T00:06:52;21.68;;;15.43;;
15516;SDS011;7860;52.030;5.572;2023-01-29T00:07:53;22.76;;;16.21;;
15516;SDS011;7860;52.030;5.572;2023-01-29T00:08:53;23.83;;;17.13;;
15516;SDS011;7860;52.030;5.572;2023-01-29T00:09:54;23.18;;;16.09;;
15516;SDS011;7860;52.030;5.572;2023-01-29T00:10:59;22.99;;;16.43;;
15516;SDS011;7860;52.030;5.572;2023-01-29T00:11:54;23.99;;;16.93;;
15516;SDS011;7860;52.030;5.572;2023-01-29T00:12:55;23.38;;;16.23;;
15516;SDS011;7860;52.030;5.572;2023-01-29T00:13:56;23.58;;;16.37;;
15516;SDS011;7860;52.030;5.572;2023-01-29T00:14:56;23.91;;;16.03;;
15516;SDS011;7860;52.030;5.572;2023-01-29T00:15:57;25.82;;;16.82;;
15516;SDS011;7860;52.030;5.572;2023-01-29T00:16:57;23.81;;;16.73;;
15516;SDS011;7860;52.030;5.572;2023-01-29T00:17:58;22.06;;;15.10;;
15516;SDS011;7860;52.030;5.572;2023-01-29T00:18:59;21.23;;;15.20;;
15516;SDS011;7860;52.030;5.572;2023-01-29T00:19:59;23.18;;;16.50;;
15516;SDS011;7860;52.030;5.572;2023-01-29T00:20:59;25.01;;;16.94;;
15516;SDS011;7860;52.030;5.572;2023-01-29T00:22:00;24.26;;;16.92;;
15516;SDS011;7860;52.030;5.572;2023-01-29T00:23:00;23.29;;;16.26;;
15516;SDS011;7860;52.030;5.572;2023-01-29T00:24:01;24.42;;;16.67;;
15516;SDS011;7860;52.030;5.572;2023-01-29T00:25:02;24.31;;;16.17;;
15516;SDS011;7860;52.030;5.572;2023-01-29T00:26:02;21.67;;;15.55;;
15516;SDS011;7860;52.030;5.572;2023-01-29T00:27:03;23.59;;;16.20;;
15516;SDS011;7860;52.030;5.572;2023-01-29T00:28:03;24.41;;;16.44;;
15516;SDS011;7860;52.030;5.572;2023-01-29T00:29:04;23.52;;;15.84;;
15516;SDS011;7860;52.030;5.572;2023-01-29T00:30:05;23.47;;;16.29;;
15516;SDS011;7860;52.030;5.572;2023-01-29T00:31:06;22.18;;;16.16;;
15516;SDS011;7860;52.030;5.572;2023-01-29T00:32:04;22.46;;;16.05;;
15516;SDS011;7860;52.030;5.572;2023-01-29T00:33:06;23.56;;;15.14;;
15516;SDS011;7860;52.030;5.572;2023-01-29T00:34:05;21.22;;;15.08;;
15516;SDS011;7860;52.030;5.572;2023-01-29T00:35:07;23.57;;;15.61;;
15516;SDS011;7860;52.030;5.572;2023-01-29T00:36:08;22.44;;;15.27;;
15516;SDS011;7860;52.030;5.572;2023-01-29T00:37:07;24.04;;;16.37;;
15516;SDS011;7860;52.030;5.572;2023-01-29T00:38:08;23.65;;;16.12;;
15516;SDS011;7860;52.030;5.572;2023-01-29T00:39:08;20.69;;;13.33;;
15516;SDS011;7860;52.030;5.572;2023-01-29T00:40:09;23.39;;;15.16;;
15516;SDS011;7860;52.030;5.572;2023-01-29T00:41:10;22.21;;;14.58;;
15516;SDS011;7860;52.030;5.572;2023-01-29T00:42:10;22.02;;;14.76;;
15516;SDS011;7860;52.030;5.572;2023-01-29T00:43:10;22.96;;;14.55;;
15516;SDS011;7860;52.030;5.572;2023-01-29T00:44:11;24.49;;;15.57;;
15516;SDS011;7860;52.030;5.572;2023-01-29T00:45:11;27.09;;;15.52;;
15516;SDS011;7860;52.030;5.572;2023-01-29T00:46:12;21.92;;;13.91;;
15516;SDS011;7860;52.030;5.572;2023-01-29T00:47:13;24.23;;;14.78;;
15516;SDS011;7860;52.030;5.572;2023-01-29T00:48:13;20.45;;;13.04;;
15516;SDS011;7860;52.030;5.572;2023-01-29T00:49:13;21.59;;;14.38;;
15516;SDS011;7860;52.030;5.572;2023-01-29T00:50:14;21.63;;;14.11;;
15516;SDS011;7860;52.030;5.572;2023-01-29T00:51:14;23.27;;;14.95;;
15516;SDS011;7860;52.030;5.572;2023-01-29T00:52:15;20.61;;;12.66;;
15516;SDS011;7860;52.030;5.572;2023-01-29T00:53:15;21.83;;;14.03;;
15516;SDS011;7860;52.030;5.572;2023-01-29T00:54:16;23.28;;;14.06;;
15516;SDS011;7860;52.030;5.572;2023-01-29T00:55:16;22.71;;;14.17;;
15516;SDS011;7860;52.030;5.572;2023-01-29T00:56:16;23.91;;;14.81;;
15516;SDS011;7860;52.030;5.572;2023-01-29T00:57:18;21.38;;;14.53;;
15516;SDS011;7860;52.030;5.572;2023-01-29T00:58:17;23.76;;;14.09;;
15516;SDS011;7860;52.030;5.572;2023-01-29T00:59:17;21.91;;;14.45;;
15516;SDS011;7860;52.030;5.572;2023-01-29T01:00:19;22.85;;;14.62;;
15516;SDS011;7860;52.030;5.572;2023-01-29T01:01:19;22.48;;;14.68;;
15516;SDS011;7860;52.030;5.572;2023-01-29T01:02:19;23.04;;;14.82;;
15516;SDS011;7860;52.030;5.572;2023-01-29T01:03:20;21.05;;;13.85;;
15516;SDS011;7860;52.030;5.572;2023-01-29T01:04:20;24.27;;;14.98;;
15516;SDS011;7860;52.030;5.572;2023-01-29T01:05:21;24.25;;;15.13;;
15516;SDS011;7860;52.030;5.572;2023-01-29T01:06:22;22.83;;;14.85;;
15516;SDS011;7860;52.030;5.572;2023-01-29T01:07:22;22.20;;;14.95;;
15516;SDS011;7860;52.030;5.572;2023-01-29T01:08:23;22.87;;;14.82;;
15516;SDS011;7860;52.030;5.572;2023-01-29T01:09:24;22.26;;;14.51;;
15516;SDS011;7860;52.030;5.572;2023-01-29T01:10:26;23.84;;;15.14;;
15516;SDS011;7860;52.030;5.572;2023-01-29T01:11:25;22.19;;;14.67;;
15516;SDS011;7860;52.030;5.572;2023-01-29T01:12:26;23.81;;;15.04;;
15516;SDS011;7860;52.030;5.572;2023-01-29T01:13:26;23.40;;;14.68;;
15516;SDS011;7860;52.030;5.572;2023-01-29T01:14:27;22.58;;;14.85;;
15516;SDS011;7860;52.030;5.572;2023-01-29T01:15:28;23.46;;;14.97;;
15516;SDS011;7860;52.030;5.572;2023-01-29T01:16:27;23.30;;;15.14;;
15516;SDS011;7860;52.030;5.572;2023-01-29T01:17:27;22.82;;;14.75;;
15516;SDS011;7860;52.030;5.572;2023-01-29T01:18:28;21.32;;;14.65;;
15516;SDS011;7860;52.030;5.572;2023-01-29T01:19:28;23.80;;;15.35;;
15516;SDS011;7860;52.030;5.572;2023-01-29T01:20:31;24.04;;;15.49;;
15516;SDS011;7860;52.030;5.572;2023-01-29T01:21:29;22.61;;;14.94;;
15516;SDS011;7860;52.030;5.572;2023-01-29T01:22:30;23.39;;;14.49;;
15516;SDS011;7860;52.030;5.572;2023-01-29T01:23:30;22.83;;;14.89;;
15516;SDS011;7860;52.030;5.572;2023-01-29T01:24:31;21.41;;;14.04;;
15516;SDS011;7860;52.030;5.572;2023-01-29T01:25:32;21.82;;;13.70;;
15516;SDS011;7860;52.030;5.572;2023-01-29T01:26:32;23.96;;;14.51;;
15516;SDS011;7860;52.030;5.572;2023-01-29T01:27:33;23.33;;;14.88;;
15516;SDS011;7860;52.030;5.572;2023-01-29T01:28:34;22.57;;;13.97;;
15516;SDS011;7860;52.030;5.572;2023-01-29T01:29:34;24.41;;;14.66;;
15516;SDS011;7860;52.030;5.572;2023-01-29T01:30:35;21.43;;;14.34;;
15516;SDS011;7860;52.030;5.572;2023-01-29T01:31:35;23.05;;;13.97;;
15516;SDS011;7860;52.030;5.572;2023-01-29T01:32:36;21.47;;;14.36;;
15516;SDS011;7860;52.030;5.572;2023-01-29T01:33:37;22.77;;;14.11;;
15516;SDS011;7860;52.030;5.572;2023-01-29T01:34:37;24.02;;;13.86;;
15516;SDS011;7860;52.030;5.572;2023-01-29T01:35:38;20.80;;;13.73;;
15516;SDS011;7860;52.030;5.572;2023-01-29T01:36:39;22.66;;;14.52;;
15516;SDS011;7860;52.030;5.572;2023-01-29T01:37:39;20.78;;;13.66;;
15516;SDS011;7860;52.030;5.572;2023-01-29T01:38:40;21.45;;;14.09;;
15516;SDS011;7860;52.030;5.572;2023-01-29T01:39:40;22.74;;;14.33;;
15516;SDS011;7860;52.030;5.572;2023-01-29T01:40:43;22.47;;;14.30;;
15516;SDS011;7860;52.030;5.572;2023-01-29T01:41:41;21.58;;;14.52;;
15516;SDS011;7860;52.030;5.572;2023-01-29T01:42:42;22.55;;;14.23;;
15516;SDS011;7860;52.030;5.572;2023-01-29T01:43:47;21.00;;;13.79;;
15516;SDS011;7860;52.030;5.572;2023-01-29T01:44:51;22.32;;;14.15;;
15516;SDS011;7860;52.030;5.572;2023-01-29T01:45:43;23.66;;;14.57;;
15516;SDS011;7860;52.030;5.572;2023-01-29T01:46:44;23.50;;;14.10;;
15516;SDS011;7860;52.030;5.572;2023-01-29T01:47:45;21.67;;;14.26;;
15516;SDS011;7860;52.030;5.572;2023-01-29T01:48:46;24.12;;;14.34;;
15516;SDS011;7860;52.030;5.572;2023-01-29T01:49:45;21.55;;;14.39;;
15516;SDS011;7860;52.030;5.572;2023-01-29T01:50:47;22.46;;;15.01;;
15516;SDS011;7860;52.030;5.572;2023-01-29T01:51:46;21.72;;;14.58;;
15516;SDS011;7860;52.030;5.572;2023-01-29T01:52:48;24.17;;;15.02;;
15516;SDS011;7860;52.030;5.572;2023-01-29T01:53:49;23.27;;;14.34;;
15516;SDS011;7860;52.030;5.572;2023-01-29T01:54:48;24.38;;;14.98;;
15516;SDS011;7860;52.030;5.572;2023-01-29T01:55:49;22.63;;;14.39;;
15516;SDS011;7860;52.030;5.572;2023-01-29T01:56:49;23.42;;;14.83;;
15516;SDS011;7860;52.030;5.572;2023-01-29T01:57:51;23.11;;;14.54;;
15516;SDS011;7860;52.030;5.572;2023-01-29T01:58:50;22.47;;;14.80;;
15516;SDS011;7860;52.030;5.572;2023-01-29T01:59:51;21.30;;;14.47;;
15516;SDS011;7860;52.030;5.572;2023-01-29T02:00:51;23.57;;;15.40;;
15516;SDS011;7860;52.030;5.572;2023-01-29T02:01:52;22.68;;;15.38;;
15516;SDS011;7860;52.030;5.572;2023-01-29T02:02:52;24.31;;;15.09;;
15516;SDS011;7860;52.030;5.572;2023-01-29T02:03:54;22.98;;;14.81;;
15516;SDS011;7860;52.030;5.572;2023-01-29T02:04:53;23.49;;;15.37;;
15516;SDS011;7860;52.030;5.572;2023-01-29T02:05:54;22.19;;;15.29;;
15516;SDS011;7860;52.030;5.572;2023-01-29T02:06:54;22.73;;;14.87;;
15516;SDS011;7860;52.030;5.572;2023-01-29T02:07:54;23.55;;;15.79;;
15516;SDS011;7860;52.030;5.572;2023-01-29T02:08:56;24.18;;;15.20;;
15516;SDS011;7860;52.030;5.572;2023-01-29T02:09:58;23.45;;;15.46;;
15516;SDS011;7860;52.030;5.572;2023-01-29T02:10:55;24.18;;;15.34;;
15516;SDS011;7860;52.030;5.572;2023-01-29T02:11:56;23.86;;;15.06;;
15516;SDS011;7860;52.030;5.572;2023-01-29T02:12:56;24.69;;;15.36;;
15516;SDS011;7860;52.030;5.572;2023-01-29T02:13:56;23.23;;;15.08;;
15516;SDS011;7860;52.030;5.572;2023-01-29T02:14:57;23.99;;;15.18;;
15516;SDS011;7860;52.030;5.572;2023-01-29T02:15:58;23.26;;;15.46;;
15516;SDS011;7860;52.030;5.572;2023-01-29T02:16:59;21.97;;;15.05;;
15516;SDS011;7860;52.030;5.572;2023-01-29T02:17:59;24.68;;;15.39;;
15516;SDS011;7860;52.030;5.572;2023-01-29T02:18:59;22.13;;;15.14;;
15516;SDS011;7860;52.030;5.572;2023-01-29T02:20:02;22.93;;;15.39;;
15516;SDS011;7860;52.030;5.572;2023-01-29T02:21:04;23.83;;;14.94;;
15516;SDS011;7860;52.030;5.572;2023-01-29T02:22:05;25.35;;;15.24;;
15516;SDS011;7860;52.030;5.572;2023-01-29T02:23:07;21.53;;;14.86;;
15516;SDS011;7860;52.030;5.572;2023-01-29T02:24:10;23.06;;;15.23;;
15516;SDS011;7860;52.030;5.572;2023-01-29T02:25:11;23.15;;;15.01;;
15516;SDS011;7860;52.030;5.572;2023-01-29T02:27:06;24.60;;;15.25;;
15516;SDS011;7860;52.030;5.572;2023-01-29T02:28:06;23.56;;;15.18;;
15516;SDS011;7860;52.030;5.572;2023-01-29T02:29:06;24.45;;;15.71;;
15516;SDS011;7860;52.030;5.572;2023-01-29T02:30:07;23.22;;;15.38;;
15516;SDS011;7860;52.030;5.572;2023-01-29T02:31:07;22.84;;;15.51;;
15516;SDS011;7860;52.030;5.572;2023-01-29T02:32:08;23.50;;;14.59;;
15516;SDS011;7860;52.030;5.572;2023-01-29T02:33:10;22.07;;;15.51;;
15516;SDS011;7860;52.030;5.572;2023-01-29T02:34:10;23.60;;;15.05;;
15516;SDS011;7860;52.030;5.572;2023-01-29T02:35:10;24.01;;;15.14;;
15516;SDS011;7860;52.030;5.572;2023-01-29T02:36:12;24.11;;;14.73;;
15516;SDS011;7860;52.030;5.572;2023-01-29T02:37:09;22.43;;;14.57;;
15516;SDS011;7860;52.030;5.572;2023-01-29T02:38:11;23.61;;;15.10;;
15516;SDS011;7860;52.030;5.572;2023-01-29T02:39:13;24.06;;;15.35;;
15516;SDS011;7860;52.030;5.572;2023-01-29T02:40:12;23.62;;;15.03;;
15516;SDS011;7860;52.030;5.572;2023-01-29T02:41:12;23.07;;;15.78;;
15516;SDS011;7860;52.030;5.572;2023-01-29T02:42:12;22.45;;;14.69;;
15516;SDS011;7860;52.030;5.572;2023-01-29T02:43:15;22.06;;;15.15;;
15516;SDS011;7860;52.030;5.572;2023-01-29T02:44:15;23.67;;;15.02;;
15516;SDS011;7860;52.030;5.572;2023-01-29T02:45:14;23.66;;;14.89;;
15516;SDS011;7860;52.030;5.572;2023-01-29T02:46:15;23.33;;;15.23;;
15516;SDS011;7860;52.030;5.572;2023-01-29T02:47:16;22.11;;;14.50;;
15516;SDS011;7860;52.030;5.572;2023-01-29T02:48:17;24.17;;;15.15;;
15516;SDS011;7860;52.030;5.572;2023-01-29T02:49:16;22.67;;;14.87;;
15516;SDS011;7860;52.030;5.572;2023-01-29T02:50:16;22.89;;;14.71;;
15516;SDS011;7860;52.030;5.572;2023-01-29T02:51:17;21.15;;;14.24;;
15516;SDS011;7860;52.030;5.572;2023-01-29T02:52:18;24.96;;;14.91;;
15516;SDS011;7860;52.030;5.572;2023-01-29T02:53:17;23.33;;;14.64;;
15516;SDS011;7860;52.030;5.572;2023-01-29T02:54:19;23.16;;;15.37;;
15516;SDS011;7860;52.030;5.572;2023-01-29T02:55:20;21.07;;;14.66;;
15516;SDS011;7860;52.030;5.572;2023-01-29T02:56:20;24.33;;;14.72;;
15516;SDS011;7860;52.030;5.572;2023-01-29T02:57:19;24.09;;;15.15;;
15516;SDS011;7860;52.030;5.572;2023-01-29T02:58:21;23.58;;;14.49;;
15516;SDS011;7860;52.030;5.572;2023-01-29T02:59:20;21.61;;;14.10;;
15516;SDS011;7860;52.030;5.572;2023-01-29T03:00:21;21.37;;;14.26;;
15516;SDS011;7860;52.030;5.572;2023-01-29T03:01:22;20.97;;;13.63;;
15516;SDS011;7860;52.030;5.572;2023-01-29T03:02:22;23.75;;;14.82;;
15516;SDS011;7860;52.030;5.572;2023-01-29T03:03:23;21.08;;;13.83;;
15516;SDS011;7860;52.030;5.572;2023-01-29T03:04:23;21.05;;;14.27;;
15516;SDS011;7860;52.030;5.572;2023-01-29T03:05:30;21.32;;;14.12;;
15516;SDS011;7860;52.030;5.572;2023-01-29T03:06:24;21.87;;;14.29;;
15516;SDS011;7860;52.030;5.572;2023-01-29T03:07:24;22.46;;;14.77;;
15516;SDS011;7860;52.030;5.572;2023-01-29T03:08:27;21.89;;;14.33;;
15516;SDS011;7860;52.030;5.572;2023-01-29T03:09:27;23.30;;;14.88;;
15516;SDS011;7860;52.030;5.572;2023-01-29T03:10:27;23.42;;;14.95;;
15516;SDS011;7860;52.030;5.572;2023-01-29T03:11:26;23.09;;;14.52;;
15516;SDS011;7860;52.030;5.572;2023-01-29T03:12:26;23.34;;;14.78;;
15516;SDS011;7860;52.030;5.572;2023-01-29T03:13:29;21.89;;;14.23;;
15516;SDS011;7860;52.030;5.572;2023-01-29T03:14:29;21.51;;;14.67;;
15516;SDS011;7860;52.030;5.572;2023-01-29T03:15:29;23.41;;;14.97;;
15516;SDS011;7860;52.030;5.572;2023-01-29T03:16:30;21.59;;;13.98;;
15516;SDS011;7860;52.030;5.572;2023-01-29T03:17:31;22.82;;;14.50;;
15516;SDS011;7860;52.030;5.572;2023-01-29T03:18:31;20.63;;;14.03;;
15516;SDS011;7860;52.030;5.572;2023-01-29T03:19:32;22.00;;;14.79;;
15516;SDS011;7860;52.030;5.572;2023-01-29T03:20:32;23.45;;;15.05;;
15516;SDS011;7860;52.030;5.572;2023-01-29T03:21:33;22.43;;;14.62;;
15516;SDS011;7860;52.030;5.572;2023-01-29T03:22:33;23.56;;;14.95;;
15516;SDS011;7860;52.030;5.572;2023-01-29T03:23:33;22.64;;;13.74;;
15516;SDS011;7860;52.030;5.572;2023-01-29T03:24:35;24.48;;;14.52;;
15516;SDS011;7860;52.030;5.572;2023-01-29T03:25:34;22.95;;;14.81;;
15516;SDS011;7860;52.030;5.572;2023-01-29T03:26:35;21.94;;;14.37;;
15516;SDS011;7860;52.030;5.572;2023-01-29T03:27:36;20.67;;;13.76;;
15516;SDS011;7860;52.030;5.572;2023-01-29T03:28:36;21.72;;;14.82;;
15516;SDS011;7860;52.030;5.572;2023-01-29T03:29:36;22.03;;;14.80;;
15516;SDS011;7860;52.030;5.572;2023-01-29T03:30:37;24.83;;;15.23;;
15516;SDS011;7860;52.030;5.572;2023-01-29T03:31:36;22.74;;;14.90;;
15516;SDS011;7860;52.030;5.572;2023-01-29T03:32:37;22.72;;;14.68;;
15516;SDS011;7860;52.030;5.572;2023-01-29T03:33:39;23.73;;;14.87;;
15516;SDS011;7860;52.030;5.572;2023-01-29T03:34:39;21.90;;;14.15;;
15516;SDS011;7860;52.030;5.572;2023-01-29T03:35:40;20.90;;;14.11;;
15516;SDS011;7860;52.030;5.572;2023-01-29T03:36:40;22.26;;;14.25;;
15516;SDS011;7860;52.030;5.572;2023-01-29T03:37:40;21.78;;;14.63;;
15516;SDS011;7860;52.030;5.572;2023-01-29T03:38:40;22.37;;;14.41;;
15516;SDS011;7860;52.030;5.572;2023-01-29T03:39:41;22.92;;;14.56;;
15516;SDS011;7860;52.030;5.572;2023-01-29T03:40:43;23.76;;;15.06;;
15516;SDS011;7860;52.030;5.572;2023-01-29T03:41:43;23.48;;;14.34;;
15516;SDS011;7860;52.030;5.572;2023-01-29T03:42:47;25.12;;;15.83;;
15516;SDS011;7860;52.030;5.572;2023-01-29T03:43:44;22.77;;;15.08;;
15516;SDS011;7860;52.030;5.572;2023-01-29T03:44:46;23.20;;;14.69;;
15516;SDS011;7860;52.030;5.572;2023-01-29T03:45:47;21.00;;;14.05;;
15516;SDS011;7860;52.030;5.572;2023-01-29T03:46:46;23.34;;;14.81;;
15516;SDS011;7860;52.030;5.572;2023-01-29T03:47:46;22.68;;;14.64;;
15516;SDS011;7860;52.030;5.572;2023-01-29T03:48:48;23.66;;;15.09;;
15516;SDS011;7860;52.030;5.572;2023-01-29T03:49:50;22.82;;;14.72;;
15516;SDS011;7860;52.030;5.572;2023-01-29T03:50:48;23.74;;;14.93;;
15516;SDS011;7860;52.030;5.572;2023-01-29T03:51:50;23.72;;;15.19;;
15516;SDS011;7860;52.030;5.572;2023-01-29T03:52:48;23.11;;;14.71;;
15516;SDS011;7860;52.030;5.572;2023-01-29T03:53:49;25.44;;;14.98;;
15516;SDS011;7860;52.030;5.572;2023-01-29T03:54:51;24.93;;;16.06;;
15516;SDS011;7860;52.030;5.572;2023-01-29T03:55:51;22.69;;;15.08;;
15516;SDS011;7860;52.030;5.572;2023-01-29T03:56:53;23.46;;;15.02;;
15516;SDS011;7860;52.030;5.572;2023-01-29T03:57:52;24.05;;;15.47;;
15516;SDS011;7860;52.030;5.572;2023-01-29T03:58:53;23.69;;;14.81;;
15516;SDS011;7860;52.030;5.572;2023-01-29T03:59:52;23.43;;;15.84;;
15516;SDS011;7860;52.030;5.572;2023-01-29T04:00:52;25.41;;;15.76;;
15516;SDS011;7860;52.030;5.572;2023-01-29T04:01:53;24.02;;;15.53;;
15516;SDS011;7860;52.030;5.572;2023-01-29T04:02:54;24.98;;;15.66;;
15516;SDS011;7860;52.030;5.572;2023-01-29T04:03:53;24.70;;;15.80;;
15516;SDS011;7860;52.030;5.572;2023-01-29T04:04:54;23.04;;;15.39;;
15516;SDS011;7860;52.030;5.572;2023-01-29T04:05:55;23.82;;;15.58;;
15516;SDS011;7860;52.030;5.572;2023-01-29T04:06:55;22.73;;;15.04;;
15516;SDS011;7860;52.030;5.572;2023-01-29T04:07:56;24.17;;;15.34;;
15516;SDS011;7860;52.030;5.572;2023-01-29T04:08:56;24.97;;;15.58;;
15516;SDS011;7860;52.030;5.572;2023-01-29T04:09:57;23.64;;;15.66;;
15516;SDS011;7860;52.030;5.572;2023-01-29T04:10:58;23.92;;;16.18;;
15516;SDS011;7860;52.030;5.572;2023-01-29T04:11:59;24.01;;;15.81;;
15516;SDS011;7860;52.030;5.572;2023-01-29T04:12:57;23.74;;;15.84;;
15516;SDS011;7860;52.030;5.572;2023-01-29T04:13:58;24.57;;;16.47;;
15516;SDS011;7860;52.030;5.572;2023-01-29T04:14:58;22.75;;;15.29;;
15516;SDS011;7860;52.030;5.572;2023-01-29T04:15:59;23.55;;;15.98;;
15516;SDS011;7860;52.030;5.572;2023-01-29T04:16:59;24.34;;;16.29;;
15516;SDS011;7860;52.030;5.572;2023-01-29T04:18:00;22.46;;;15.69;;
15516;SDS011;7860;52.030;5.572;2023-01-29T04:19:00;24.25;;;16.18;;
15516;SDS011;7860;52.030;5.572;2023-01-29T04:20:00;23.79;;;16.30;;
15516;SDS011;7860;52.030;5.572;2023-01-29T04:21:01;25.48;;;16.51;;
15516;SDS011;7860;52.030;5.572;2023-01-29T04:22:02;25.17;;;16.66;;
15516;SDS011;7860;52.030;5.572;2023-01-29T04:23:04;24.45;;;16.51;;
15516;SDS011;7860;52.030;5.572;2023-01-29T04:24:03;25.21;;;16.14;;
15516;SDS011;7860;52.030;5.572;2023-01-29T04:25:03;25.37;;;16.67;;
15516;SDS011;7860;52.030;5.572;2023-01-29T04:26:09;25.81;;;17.17;;
15516;SDS011;7860;52.030;5.572;2023-01-29T04:27:06;26.10;;;17.77;;
15516;SDS011;7860;52.030;5.572;2023-01-29T04:28:05;24.78;;;17.75;;
15516;SDS011;7860;52.030;5.572;2023-01-29T04:29:10;25.02;;;18.11;;
15516;SDS011;7860;52.030;5.572;2023-01-29T04:30:09;26.80;;;18.59;;
15516;SDS011;7860;52.030;5.572;2023-01-29T04:31:07;25.57;;;18.14;;
15516;SDS011;7860;52.030;5.572;2023-01-29T04:32:10;25.72;;;18.32;;
15516;SDS011;7860;52.030;5.572;2023-01-29T04:33:10;25.24;;;18.69;;
15516;SDS011;7860;52.030;5.572;2023-01-29T04:34:11;25.64;;;18.30;;
15516;SDS011;7860;52.030;5.572;2023-01-29T04:35:09;25.18;;;18.13;;
15516;SDS011;7860;52.030;5.572;2023-01-29T04:36:13;27.42;;;18.27;;
15516;SDS011;7860;52.030;5.572;2023-01-29T04:37:10;25.26;;;18.69;;
15516;SDS011;7860;52.030;5.572;2023-01-29T04:38:10;27.40;;;18.80;;
15516;SDS011;7860;52.030;5.572;2023-01-29T04:39:12;26.87;;;18.08;;
15516;SDS011;7860;52.030;5.572;2023-01-29T04:40:14;27.52;;;19.05;;
15516;SDS011;7860;52.030;5.572;2023-01-29T04:41:14;24.96;;;17.75;;
15516;SDS011;7860;52.030;5.572;2023-01-29T04:42:13;24.67;;;18.28;;
15516;SDS011;7860;52.030;5.572;2023-01-29T04:43:13;25.23;;;17.19;;
15516;SDS011;7860;52.030;5.572;2023-01-29T04:44:14;25.26;;;17.92;;
15516;SDS011;7860;52.030;5.572;2023-01-29T04:45:15;25.32;;;18.19;;
15516;SDS011;7860;52.030;5.572;2023-01-29T04:46:14;25.60;;;18.42;;
15516;SDS011;7860;52.030;5.572;2023-01-29T04:47:17;24.53;;;17.19;;
15516;SDS011;7860;52.030;5.572;2023-01-29T04:48:17;24.04;;;18.24;;
15516;SDS011;7860;52.030;5.572;2023-01-29T04:49:19;25.45;;;17.94;;
15516;SDS011;7860;52.030;5.572;2023-01-29T04:50:18;25.23;;;17.84;;
15516;SDS011;7860;52.030;5.572;2023-01-29T04:51:18;25.21;;;17.83;;
15516;SDS011;7860;52.030;5.572;2023-01-29T04:52:19;25.33;;;18.25;;
15516;SDS011;7860;52.030;5.572;2023-01-29T04:53:21;24.40;;;17.60;;
15516;SDS011;7860;52.030;5.572;2023-01-29T04:54:22;23.99;;;17.68;;
15516;SDS011;7860;52.030;5.572;2023-01-29T04:55:23;24.60;;;18.56;;
15516;SDS011;7860;52.030;5.572;2023-01-29T04:56:22;25.51;;;18.20;;
15516;SDS011;7860;52.030;5.572;2023-01-29T04:57:22;23.31;;;17.86;;
15516;SDS011;7860;52.030;5.572;2023-01-29T04:58:24;23.49;;;17.85;;
15516;SDS011;7860;52.030;5.572;2023-01-29T04:59:24;25.22;;;17.84;;
15516;SDS011;7860;52.030;5.572;2023-01-29T05:00:23;24.80;;;18.18;;
15516;SDS011;7860;52.030;5.572;2023-01-29T05:01:23;25.66;;;18.46;;
15516;SDS011;7860;52.030;5.572;2023-01-29T05:02:24;25.33;;;17.71;;
15516;SDS011;7860;52.030;5.572;2023-01-29T05:03:24;24.30;;;17.87;;
15516;SDS011;7860;52.030;5.572;2023-01-29T05:04:25;24.96;;;17.95;;
15516;SDS011;7860;52.030;5.572;2023-01-29T05:05:25;26.03;;;18.52;;
15516;SDS011;7860;52.030;5.572;2023-01-29T05:06:26;25.06;;;18.45;;
15516;SDS011;7860;52.030;5.572;2023-01-29T05:07:26;24.80;;;17.98;;
15516;SDS011;7860;52.030;5.572;2023-01-29T05:08:26;25.20;;;17.67;;
15516;SDS011;7860;52.030;5.572;2023-01-29T05:09:26;25.04;;;18.67;;
15516;SDS011;7860;52.030;5.572;2023-01-29T05:10:26;24.34;;;17.64;;
15516;SDS011;7860;52.030;5.572;2023-01-29T05:11:27;23.95;;;18.16;;
15516;SDS011;7860;52.030;5.572;2023-01-29T05:12:28;24.85;;;17.81;;
15516;SDS011;7860;52.030;5.572;2023-01-29T05:13:29;25.17;;;17.90;;
15516;SDS011;7860;52.030;5.572;2023-01-29T05:14:29;25.19;;;18.08;;
15516;SDS011;7860;52.030;5.572;2023-01-29T05:15:32;25.84;;;17.90;;
15516;SDS011;7860;52.030;5.572;2023-01-29T05:16:31;24.85;;;18.03;;
15516;SDS011;7860;52.030;5.572;2023-01-29T05:17:30;24.62;;;17.62;;
15516;SDS011;7860;52.030;5.572;2023-01-29T05:18:31;25.68;;;18.30;;
15516;SDS011;7860;52.030;5.572;2023-01-29T05:19:31;24.34;;;18.27;;
15516;SDS011;7860;52.030;5.572;2023-01-29T05:20:32;23.98;;;17.83;;
15516;SDS011;7860;52.030;5.572;2023-01-29T05:21:32;25.38;;;17.99;;
15516;SDS011;7860;52.030;5.572;2023-01-29T05:22:33;23.47;;;17.21;;
15516;SDS011;7860;52.030;5.572;2023-01-29T05:23:33;25.03;;;18.31;;
15516;SDS011;7860;52.030;5.572;2023-01-29T05:24:34;23.98;;;17.82;;
15516;SDS011;7860;52.030;5.572;2023-01-29T05:25:34;24.90;;;18.49;;
15516;SDS011;7860;52.030;5.572;2023-01-29T05:26:35;25.41;;;18.22;;
15516;SDS011;7860;52.030;5.572;2023-01-29T05:27:36;24.75;;;18.32;;
15516;SDS011;7860;52.030;5.572;2023-01-29T05:28:36;23.85;;;18.18;;
15516;SDS011;7860;52.030;5.572;2023-01-29T05:29:37;23.51;;;17.74;;
15516;SDS011;7860;52.030;5.572;2023-01-29T05:30:38;25.02;;;18.66;;
15516;SDS011;7860;52.030;5.572;2023-01-29T05:31:37;25.76;;;18.10;;
15516;SDS011;7860;52.030;5.572;2023-01-29T05:32:38;24.56;;;18.49;;
15516;SDS011;7860;52.030;5.572;2023-01-29T05:33:39;25.07;;;18.72;;
15516;SDS011;7860;52.030;5.572;2023-01-29T05:34:39;28.06;;;19.02;;
15516;SDS011;7860;52.030;5.572;2023-01-29T05:35:40;24.62;;;18.42;;
15516;SDS011;7860;52.030;5.572;2023-01-29T05:36:40;24.49;;;18.49;;
15516;SDS011;7860;52.030;5.572;2023-01-29T05:37:41;26.24;;;18.71;;
15516;SDS011;7860;52.030;5.572;2023-01-29T05:38:41;25.89;;;19.02;;
15516;SDS011;7860;52.030;5.572;2023-01-29T05:39:42;24.67;;;18.34;;
15516;SDS011;7860;52.030;5.572;2023-01-29T05:40:42;25.15;;;18.54;;
15516;SDS011;7860;52.030;5.572;2023-01-29T05:41:43;24.76;;;17.95;;
15516;SDS011;7860;52.030;5.572;2023-01-29T05:42:44;25.24;;;19.10;;
15516;SDS011;7860;52.030;5.572;2023-01-29T05:43:44;24.24;;;18.31;;
15516;SDS011;7860;52.030;5.572;2023-01-29T05:44:44;24.56;;;18.35;;
15516;SDS011;7860;52.030;5.572;2023-01-29T05:45:50;26.02;;;19.39;;
15516;SDS011;7860;52.030;5.572;2023-01-29T05:46:45;23.92;;;18.59;;
15516;SDS011;7860;52.030;5.572;2023-01-29T05:47:46;27.23;;;20.02;;
15516;SDS011;7860;52.030;5.572;2023-01-29T05:48:46;26.04;;;19.78;;
15516;SDS011;7860;52.030;5.572;2023-01-29T05:49:47;26.16;;;19.67;;
15516;SDS011;7860;52.030;5.572;2023-01-29T05:50:47;25.24;;;19.58;;
15516;SDS011;7860;52.030;5.572;2023-01-29T05:51:47;24.82;;;19.48;;
15516;SDS011;7860;52.030;5.572;2023-01-29T05:52:48;26.50;;;19.70;;
15516;SDS011;7860;52.030;5.572;2023-01-29T05:53:49;25.41;;;18.96;;
15516;SDS011;7860;52.030;5.572;2023-01-29T05:54:49;25.50;;;19.01;;
15516;SDS011;7860;52.030;5.572;2023-01-29T05:55:50;25.99;;;18.69;;
15516;SDS011;7860;52.030;5.572;2023-01-29T05:56:51;26.02;;;18.86;;
15516;SDS011;7860;52.030;5.572;2023-01-29T05:57:51;25.98;;;19.27;;
15516;SDS011;7860;52.030;5.572;2023-01-29T05:58:52;25.09;;;18.63;;
15516;SDS011;7860;52.030;5.572;2023-01-29T05:59:52;24.94;;;19.14;;